Time;durP1;ratioP1;P1;durP2;ratioP2;P2;SDS_P1;SDS_P2;PMS_P1;PMS_P2;Temp;Humidity;BMP_temperature;BMP_pressure;BME280_temperature;BME280_humidity;BME280_pressure;Samples;Min_cycle;Max_cycle;Signal;HPM_P1;HPM_P2
2022/08/12 00:44:50;;;;;;;0.10;0.10;;;;;;;22.51;56.13;102094.75;5039308;28;20051;-77
2022/08/12 00:47:18;;;;;;;0.10;0.10;;;;;;;22.49;55.86;102096.66;5035713;28;20036;-77
2022/08/12 00:49:45;;;;;;;0.00;0.00;;;;;;;22.47;56.46;102093.19;5042284;28;20101;-77
2022/08/12 00:52:13;;;;;;;0.00;0.00;;;;;;;22.46;56.17;102094.13;5044623;28;20034;-77
2022/08/12 00:57:22;;;;;;;0.25;0.25;;;;;;;22.45;56.44;102092.38;5069335;27;20895;-81
2022/08/12 00:59:53;;;;;;;0.05;0.05;;;;;;;22.45;56.30;102095.06;5074784;28;20051;-81
2022/08/12 01:13:27;;;;;;;0.10;0.10;;;;;;;22.38;56.30;102093.63;5051922;28;20055;-77
2022/08/12 01:15:57;;;;;;;0.10;0.10;;;;;;;22.37;56.35;102094.53;5055441;28;20025;-78
2022/08/12 01:18:27;;;;;;;0.10;0.10;;;;;;;22.33;56.56;102091.16;5051426;28;20059;-78
2022/08/12 01:26:40;;;;;;;0.00;0.00;;;;;;;22.28;56.55;102090.47;5102905;27;20408;-77
2022/08/12 01:29:09;;;;;;;0.00;0.00;;;;;;;22.24;56.96;102087.06;5105302;28;20080;-77
2022/08/12 01:31:37;;;;;;;0.47;0.30;;;;;;;22.22;56.86;102083.56;5096139;28;20028;-76
2022/08/12 01:34:07;;;;;;;0.10;0.10;;;;;;;22.22;56.69;102088.97;5104573;28;20446;-77
2022/08/12 01:36:46;;;;;;;0.00;0.00;;;;;;;22.23;56.71;102077.22;5102264;28;20430;-76
2022/08/12 01:39:16;;;;;;;0.10;0.10;;;;;;;22.19;56.32;102089.09;5105824;28;20066;-77
2022/08/12 01:41:46;;;;;;;0.10;0.10;;;;;;;22.15;56.26;102084.81;5098016;28;20103;-77
2022/08/12 01:44:14;;;;;;;0.00;0.00;;;;;;;22.12;56.78;102082.28;5106680;28;20453;-78
2022/08/12 01:52:43;;;;;;;0.70;0.30;;;;;;;22.04;56.54;102090.72;5077501;27;1886187;-77
2022/08/12 01:55:13;;;;;;;0.10;0.10;;;;;;;22.12;56.43;102088.53;5127333;27;20043;-77
2022/08/12 01:57:48;;;;;;;0.00;0.00;;;;;;;22.17;56.19;102091.03;5107901;28;20056;-77
2022/08/12 02:00:17;;;;;;;0.10;0.10;;;;;;;22.14;56.38;102088.47;5107555;28;20029;-77
2022/08/12 02:02:56;;;;;;;0.00;0.00;;;;;;;22.14;56.49;102081.25;5106782;28;20024;-77
2022/08/12 02:11:22;;;;;;;0.10;0.10;;;;;;;22.17;56.69;102088.31;5074139;28;20939;-77
2022/08/12 02:17:23;;;;;;;0.10;0.10;;;;;;;22.19;56.65;102077.44;5115104;27;20379;-77
2022/08/12 02:20:12;;;;;;;0.10;0.10;;;;;;;22.17;56.46;102069.44;5108837;28;20164;-77
2022/08/12 02:22:46;;;;;;;0.50;0.50;;;;;;;22.11;57.54;102078.69;5100712;28;20122;-77
2022/08/12 02:27:52;;;;;;;0.00;0.00;;;;;;;22.07;56.58;102068.13;5091506;28;20367;-77
2022/08/12 02:30:22;;;;;;;0.20;0.20;;;;;;;22.05;57.17;102070.03;5091427;28;20044;-77
2022/08/12 02:32:50;;;;;;;0.10;0.10;;;;;;;22.01;57.64;102073.81;5091201;28;20071;-77
2022/08/12 02:35:22;;;;;;;0.20;0.20;;;;;;;22.04;56.52;102062.88;5092209;28;20055;-77
2022/08/12 02:37:51;;;;;;;0.10;0.10;;;;;;;22.00;56.85;102055.91;5070250;28;20085;-77
2022/08/12 02:40:19;;;;;;;0.10;0.10;;;;;;;21.98;56.40;102054.13;5069083;28;20039;-77
2022/08/12 02:45:46;;;;;;;0.38;0.38;;;;;;;21.98;56.72;102059.53;5092917;27;20137;-77
2022/08/12 02:48:23;;;;;;;0.20;0.20;;;;;;;21.95;56.86;102053.41;5089935;28;20040;-77
2022/08/12 02:50:51;;;;;;;0.10;0.10;;;;;;;21.93;56.77;102061.59;5081706;28;20056;-77
2022/08/12 02:53:18;;;;;;;0.20;0.20;;;;;;;21.91;56.77;102062.63;5075401;28;20037;-77
2022/08/12 02:55:45;;;;;;;0.10;0.10;;;;;;;21.89;57.15;102062.66;5074939;28;20078;-77
2022/08/12 02:58:12;;;;;;;0.10;0.10;;;;;;;21.89;56.80;102065.38;5076640;28;20024;-77
2022/08/12 03:00:39;;;;;;;0.00;0.00;;;;;;;21.88;57.02;102069.03;5082425;28;20051;-77
2022/08/12 03:03:08;;;;;;;0.00;0.00;;;;;;;21.90;56.58;102059.03;5085944;28;20032;-77
2022/08/12 03:05:40;;;;;;;0.17;0.17;;;;;;;21.86;57.03;102054.75;5078685;28;20048;-77
2022/08/12 03:08:10;;;;;;;0.10;0.10;;;;;;;21.85;56.60;102052.97;5080761;28;20024;-77
2022/08/12 03:10:40;;;;;;;0.10;0.10;;;;;;;21.82;57.13;102050.44;5087863;28;20031;-77
2022/08/12 03:13:08;;;;;;;0.05;0.05;;;;;;;21.79;57.23;102042.50;5078014;28;20501;-77
2022/08/12 03:15:35;;;;;;;0.10;0.10;;;;;;;21.77;56.75;102045.25;5079680;28;20036;-77
2022/08/12 03:18:13;;;;;;;0.00;0.00;;;;;;;21.79;56.70;102042.50;5089988;28;20456;-77
2022/08/12 03:20:39;;;;;;;0.10;0.10;;;;;;;21.71;56.58;102039.28;5081811;28;20029;-77
2022/08/12 03:23:11;;;;;;;0.10;0.10;;;;;;;21.73;57.00;102037.38;5077597;28;20096;-77
2022/08/12 03:25:39;;;;;;;0.00;0.00;;;;;;;21.69;57.44;102036.66;5083838;28;20037;-77
2022/08/12 03:28:09;;;;;;;0.40;0.40;;;;;;;21.69;56.96;102038.50;5077553;28;20078;-77
2022/08/12 03:30:37;;;;;;;0.10;0.10;;;;;;;21.66;56.88;102036.81;5079037;28;20027;-77
2022/08/12 03:33:05;;;;;;;0.00;0.00;;;;;;;21.65;57.27;102035.94;5090264;28;20047;-77
2022/08/12 03:35:34;;;;;;;0.10;0.10;;;;;;;21.67;57.21;102034.97;5075675;28;20040;-77
2022/08/12 03:38:04;;;;;;;0.10;0.10;;;;;;;21.63;57.41;102037.84;5079526;28;20024;-77
2022/08/12 04:00:22;;;;;;;0.17;0.17;;;;;;;21.44;58.09;102036.94;5062399;28;20090;-77
2022/08/12 04:02:54;;;;;;;0.17;0.17;;;;;;;21.42;57.90;102042.41;5054871;28;20075;-77
2022/08/12 04:05:20;;;;;;;;;;;;;;;21.56;57.52;102040.88;5070788;28;20029;-78
2022/08/12 04:07:47;;;;;;;0.10;0.10;;;;;;;21.44;58.09;102042.31;5058185;28;20493;-76
2022/08/12 04:10:15;;;;;;;0.00;0.00;;;;;;;21.43;57.73;102043.25;5056104;28;20036;-78
2022/08/12 04:15:30;;;;;;;0.00;0.00;;;;;;;21.42;57.88;102036.09;5070821;28;20028;-78
2022/08/12 04:17:58;;;;;;;0.30;0.30;;;;;;;21.39;58.14;102036.28;5077434;28;20039;-77
2022/08/12 04:20:24;;;;;;;0.15;0.15;;;;;;;21.34;58.64;102037.34;5072290;28;20064;-77
2022/08/12 04:22:52;;;;;;;0.10;0.10;;;;;;;21.37;58.41;102036.34;5063161;28;20016;-77
2022/08/12 04:25:18;;;;;;;0.00;0.00;;;;;;;21.37;58.31;102041.75;5066618;28;20486;-77
2022/08/12 04:27:45;;;;;;;0.00;0.00;;;;;;;21.37;58.58;102048.94;5054410;28;20383;-77
2022/08/12 04:30:11;;;;;;;0.20;0.20;;;;;;;21.36;58.41;102044.47;5062947;28;20060;-76
2022/08/12 04:32:38;;;;;;;0.10;0.10;;;;;;;21.34;58.47;102040.03;5063399;28;20490;-77
2022/08/12 04:35:06;;;;;;;0.10;0.10;;;;;;;21.32;58.30;102036.56;5066822;28;20513;-77
2022/08/12 04:37:32;;;;;;;0.10;0.10;;;;;;;21.29;58.72;102038.50;5060387;28;20421;-77
2022/08/12 04:39:59;;;;;;;0.00;0.00;;;;;;;21.30;58.18;102040.28;5056359;28;20032;-76
2022/08/12 04:42:25;;;;;;;0.05;0.05;;;;;;;21.29;58.64;102033.97;5058748;28;20025;-77
2022/08/12 04:44:51;;;;;;;0.20;0.20;;;;;;;21.28;58.47;102037.66;5060899;28;20508;-77
2022/08/12 04:47:20;;;;;;;0.10;0.10;;;;;;;21.27;58.50;102035.91;5059890;28;20048;-77
2022/08/12 04:49:48;;;;;;;0.10;0.10;;;;;;;21.24;58.98;102030.63;5073070;28;20047;-77
2022/08/12 04:52:14;;;;;;;0.10;0.10;;;;;;;21.24;58.49;102032.47;5070925;28;20036;-77
2022/08/12 04:54:42;;;;;;;0.10;0.10;;;;;;;21.22;58.74;102027.16;5063116;28;20033;-77
2022/08/12 04:57:08;;;;;;;0.68;0.68;;;;;;;21.21;58.86;102036.19;5061277;28;20025;-77
2022/08/12 04:59:35;;;;;;;0.30;0.30;;;;;;;21.19;58.54;102027.28;5061146;28;20033;-76
2022/08/12 05:02:01;;;;;;;0.03;0.03;;;;;;;21.18;58.74;102030.91;5063637;28;20020;-77
2022/08/12 05:04:28;;;;;;;0.10;0.10;;;;;;;21.19;58.86;102026.41;5060303;28;20599;-77
2022/08/12 05:06:54;;;;;;;0.10;0.10;;;;;;;21.20;58.92;102044.31;5069787;28;20540;-77
2022/08/12 05:09:20;;;;;;;0.10;0.10;;;;;;;21.20;58.82;102039.81;5068549;28;20053;-77
2022/08/12 05:11:48;;;;;;;0.10;0.10;;;;;;;21.21;58.60;102036.19;5056539;28;20029;-77
2022/08/12 05:14:15;;;;;;;0.00;0.00;;;;;;;21.22;59.50;102037.03;5054030;28;20032;-77
2022/08/12 05:16:41;;;;;;;0.10;0.10;;;;;;;21.25;59.39;102047.69;5064858;28;20031;-77
2022/08/12 05:19:08;;;;;;;0.05;0.05;;;;;;;21.26;59.43;102044.03;5066293;28;20036;-77
2022/08/12 05:21:34;;;;;;;0.10;0.10;;;;;;;21.29;59.05;102038.50;5061338;28;20081;-77
2022/08/12 05:24:00;;;;;;;0.17;0.17;;;;;;;21.32;58.78;102049.13;5058884;28;20040;-77
2022/08/12 05:26:27;;;;;;;0.00;0.00;;;;;;;21.36;58.85;102052.56;5061199;28;20116;-77
2022/08/12 05:28:53;;;;;;;0.10;0.10;;;;;;;21.37;58.78;102047.13;5056588;28;20029;-77
2022/08/12 05:31:19;;;;;;;0.10;0.10;;;;;;;21.42;58.49;102044.19;5058485;28;20040;-77
2022/08/12 05:33:46;;;;;;;0.10;0.10;;;;;;;21.45;58.39;102050.31;5064871;28;20459;-77
2022/08/12 05:36:14;;;;;;;0.10;0.10;;;;;;;21.49;58.94;102053.75;5072364;28;20486;-77
2022/08/12 05:38:57;;;;;;;0.22;0.22;;;;;;;21.51;58.91;102051.88;5062196;28;20033;-77
2022/08/12 05:41:28;;;;;;;0.10;0.10;;;;;;;21.56;58.40;102051.66;5062076;28;20020;-77
2022/08/12 05:43:58;;;;;;;0.10;0.10;;;;;;;21.60;58.70;102051.47;5062396;28;20021;-77
2022/08/12 05:46:26;;;;;;;0.20;0.20;;;;;;;21.62;58.57;102054.97;5062237;28;20037;-77
2022/08/12 05:48:53;;;;;;;0.10;0.10;;;;;;;21.67;58.71;102048.47;5066363;28;20033;-77
2022/08/12 05:51:23;;;;;;;0.10;0.10;;;;;;;21.72;58.98;102057.22;5064515;28;20024;-77
2022/08/12 05:53:50;;;;;;;0.10;0.10;;;;;;;21.75;58.13;102057.09;5069774;28;20028;-77
2022/08/12 05:56:21;;;;;;;0.10;0.10;;;;;;;21.79;58.62;102059.56;5070216;28;20021;-79
2022/08/12 05:58:48;;;;;;;0.10;0.10;;;;;;;21.83;58.23;102065.66;5065443;28;20029;-78
2022/08/12 06:01:14;;;;;;;0.63;0.63;;;;;;;21.88;57.82;102058.25;5069469;28;20036;-78
2022/08/12 06:03:41;;;;;;;0.10;0.10;;;;;;;21.92;58.03;102058.94;5077260;28;20035;-79
2022/08/12 06:06:08;;;;;;;0.20;0.20;;;;;;;21.95;58.44;102059.66;5079919;28;20032;-78
2022/08/12 06:08:34;;;;;;;0.10;0.10;;;;;;;22.01;57.93;102054.91;5078166;28;20009;-78
2022/08/12 06:11:03;;;;;;;0.15;0.15;;;;;;;22.07;58.01;102068.13;5078456;28;20020;-78
2022/08/12 06:13:30;;;;;;;0.10;0.10;;;;;;;22.11;57.64;102054.41;5064202;28;20093;-78
2022/08/12 06:15:56;;;;;;;0.10;0.10;;;;;;;22.17;57.79;102058.63;5063134;28;20037;-77
2022/08/12 06:18:23;;;;;;;0.10;0.10;;;;;;;22.22;57.71;102061.06;5058675;28;20024;-77
2022/08/12 06:20:49;;;;;;;0.13;0.13;;;;;;;22.25;57.50;102072.59;5070659;28;20112;-77
2022/08/12 06:23:15;;;;;;;0.47;0.47;;;;;;;22.32;57.31;102067.78;5058439;28;20040;-78
2022/08/12 06:25:42;;;;;;;0.10;0.10;;;;;;;22.37;58.25;102067.53;5061505;28;20036;-78
2022/08/12 06:28:16;;;;;;;0.10;0.10;;;;;;;22.46;57.35;102069.81;5066890;28;20040;-77
2022/08/12 06:30:45;;;;;;;0.10;0.10;;;;;;;22.49;57.26;102058.84;5065350;28;20021;-77
2022/08/12 06:33:12;;;;;;;0.00;0.00;;;;;;;22.54;57.17;102056.81;5070717;28;20045;-78
2022/08/12 06:35:40;;;;;;;0.08;0.08;;;;;;;22.60;57.19;102056.50;5071375;28;20029;-78
2022/08/12 06:38:14;;;;;;;0.10;0.10;;;;;;;22.70;57.07;102051.47;5067945;28;20032;-78
2022/08/12 06:43:28;;;;;;;0.10;0.10;;;;;;;22.78;57.02;102045.69;5061570;28;20044;-78
2022/08/12 06:45:56;;;;;;;0.20;0.20;;;;;;;22.84;56.88;102047.16;5052313;28;20515;-78
2022/08/12 06:48:24;;;;;;;0.10;0.10;;;;;;;22.88;56.83;102044.22;5068584;28;20032;-78
2022/08/12 06:50:50;;;;;;;0.10;0.10;;;;;;;22.94;56.69;102046.59;5061903;28;20438;-78
2022/08/12 06:53:16;;;;;;;0.10;0.10;;;;;;;23.02;56.65;102039.94;5061285;28;20036;-77
2022/08/12 06:55:42;;;;;;;0.10;0.10;;;;;;;23.08;56.44;102037.75;5057508;28;20032;-76
2022/08/12 06:58:10;;;;;;;0.10;0.10;;;;;;;23.15;56.20;102038.28;5053036;28;20057;-77
2022/08/12 07:00:36;;;;;;;0.20;0.20;;;;;;;23.19;56.12;102045.31;5061636;28;20383;-77
2022/08/12 07:03:04;;;;;;;0.40;0.40;;;;;;;23.30;55.78;102044.72;5059825;28;20039;-77
2022/08/12 07:05:30;;;;;;;0.00;0.00;;;;;;;23.37;55.78;102045.25;5062402;28;20033;-77
2022/08/12 07:10:44;;;;;;;0.25;0.25;;;;;;;23.53;55.60;102040.75;5104432;27;21090;-78
2022/08/12 07:13:10;;;;;;;0.10;0.10;;;;;;;23.61;55.18;102040.31;5078552;28;20025;-79
2022/08/12 07:15:38;;;;;;;0.03;0.03;;;;;;;23.67;55.05;102041.81;5085817;28;20044;-78
2022/08/12 07:18:10;;;;;;;0.10;0.10;;;;;;;23.73;54.98;102041.47;5084235;28;20067;-79
2022/08/12 07:20:40;;;;;;;0.10;0.10;;;;;;;23.84;54.86;102044.41;5081789;28;20032;-78
2022/08/12 07:23:06;;;;;;;0.10;0.10;;;;;;;23.87;54.55;102044.22;5078113;28;20028;-79
2022/08/12 07:25:34;;;;;;;0.10;0.10;;;;;;;23.94;54.54;102044.81;5092762;28;20051;-79
2022/08/12 07:28:04;;;;;;;0.35;0.35;;;;;;;24.02;54.44;102041.66;5090272;28;20107;-79
2022/08/12 07:30:33;;;;;;;0.20;0.20;;;;;;;24.08;54.45;102052.13;5094964;28;20397;-79
2022/08/12 07:33:03;;;;;;;0.73;0.55;;;;;;;24.17;54.09;102050.72;5097067;28;20060;-79
2022/08/12 07:35:31;;;;;;;0.10;0.10;;;;;;;24.27;53.81;102041.06;5098283;28;20036;-79
2022/08/12 07:37:58;;;;;;;0.10;0.10;;;;;;;24.37;53.74;102047.72;5099999;28;20032;-79
2022/08/12 07:40:26;;;;;;;0.10;0.10;;;;;;;24.45;53.20;102039.13;5094128;28;20021;-79
2022/08/12 07:42:53;;;;;;;0.10;0.10;;;;;;;24.57;53.18;102047.47;5095685;28;20032;-82
2022/08/12 07:45:20;;;;;;;0.20;0.20;;;;;;;24.66;52.95;102052.34;5086327;28;20052;-79
2022/08/12 07:47:47;;;;;;;0.28;0.28;;;;;;;24.77;52.64;102046.28;5097705;28;20032;-79
2022/08/12 07:50:16;;;;;;;0.10;0.10;;;;;;;24.83;52.43;102054.91;5095365;28;20028;-79
2022/08/12 07:52:45;;;;;;;0.00;0.00;;;;;;;24.92;52.52;102049.88;5090420;28;20040;-80
2022/08/12 07:55:14;;;;;;;16.88;1.00;;;;;;;25.03;52.32;102055.50;5088924;28;20036;-79
2022/08/12 07:57:58;;;;;;;0.55;0.55;;;;;;;25.18;52.01;102051.84;5095291;28;20139;-79
2022/08/12 08:00:26;;;;;;;0.47;0.47;;;;;;;25.24;51.61;102052.44;5095459;28;20028;-82
2022/08/12 08:02:53;;;;;;;0.10;0.10;;;;;;;25.28;51.78;102048.56;5098249;28;20032;-82
2022/08/12 08:05:21;;;;;;;0.28;0.28;;;;;;;25.36;50.98;102051.66;5094523;28;20034;-82
2022/08/12 08:07:48;;;;;;;0.10;0.10;;;;;;;25.46;51.19;102051.94;5090675;28;20035;-82
2022/08/12 08:10:15;;;;;;;0.30;0.30;;;;;;;25.55;50.61;102061.38;5088411;28;20028;-82
2022/08/12 08:12:58;;;;;;;0.00;0.00;;;;;;;25.63;50.75;102053.59;5091641;28;20044;-83
2022/08/12 08:15:29;;;;;;;0.52;0.52;;;;;;;25.73;50.38;102053.84;5090263;28;20028;-81
2022/08/12 08:18:01;;;;;;;0.13;0.13;;;;;;;25.83;49.93;102050.44;5093996;28;20382;-83
2022/08/12 08:20:29;;;;;;;0.00;0.00;;;;;;;25.89;50.36;102051.00;5090363;28;20029;-82
2022/08/12 08:22:57;;;;;;;0.20;0.20;;;;;;;25.99;49.85;102054.84;5082131;28;20048;-83
2022/08/12 08:25:30;;;;;;;0.10;0.10;;;;;;;26.05;49.15;102043.59;5075983;28;20501;-83
2022/08/12 08:28:05;;;;;;;0.20;0.20;;;;;;;26.20;49.54;102046.28;5070272;28;20017;-84
2022/08/12 08:30:33;;;;;;;0.25;0.25;;;;;;;26.31;49.01;102057.28;5078016;28;20028;-83
2022/08/12 08:32:59;;;;;;;0.10;0.10;;;;;;;26.36;49.58;102057.84;5077844;28;20035;-83
2022/08/12 08:35:26;;;;;;;0.20;0.20;;;;;;;26.48;49.48;102054.28;5074170;28;20028;-84
2022/08/12 08:37:52;;;;;;;0.95;0.52;;;;;;;26.60;49.07;102055.28;5075738;28;20024;-84
2022/08/12 08:43:06;;;;;;;0.20;0.20;;;;;;;26.82;48.82;102056.56;5070255;28;20079;-83
2022/08/12 08:45:32;;;;;;;0.30;0.30;;;;;;;26.96;49.14;102055.56;5077753;28;20075;-83
2022/08/12 08:47:59;;;;;;;0.10;0.10;;;;;;;27.08;48.40;102059.28;5077145;28;20082;-83
2022/08/12 08:50:26;;;;;;;0.20;0.20;;;;;;;27.22;48.29;102056.44;5078087;28;20017;-83
2022/08/12 08:52:52;;;;;;;0.40;0.40;;;;;;;27.33;47.18;102063.84;5076082;28;20119;-83
2022/08/12 08:55:18;;;;;;;0.10;0.10;;;;;;;27.46;46.52;102052.94;5076017;28;20048;-83
2022/08/12 08:57:49;;;;;;;0.10;0.10;;;;;;;27.58;46.49;102048.47;5075481;28;20024;-83
2022/08/12 09:00:19;;;;;;;0.22;0.22;;;;;;;27.72;46.48;102050.16;5078807;28;20490;-83
2022/08/12 09:02:47;;;;;;;0.40;0.40;;;;;;;27.82;45.32;102056.66;5069968;28;20064;-84
2022/08/12 09:05:14;;;;;;;0.05;0.05;;;;;;;27.91;46.02;102049.66;5076505;28;20061;-82
2022/08/12 09:07:42;;;;;;;0.20;0.20;;;;;;;28.01;44.85;102044.38;5063980;28;20033;-83
2022/08/12 09:10:08;;;;;;;0.20;0.20;;;;;;;28.05;41.79;102040.47;5065329;28;20020;-84
2022/08/12 09:15:22;;;;;;;0.35;0.35;;;;;;;28.32;42.79;102048.41;5060745;28;20040;-80
2022/08/12 09:17:56;;;;;;;0.10;0.10;;;;;;;28.44;42.87;102053.88;5078695;28;20028;-78
2022/08/12 09:20:28;;;;;;;0.45;0.45;;;;;;;28.54;42.24;102044.88;5078409;28;20127;-78
2022/08/12 09:22:55;;;;;;;0.10;0.10;;;;;;;28.64;42.66;102045.03;5075465;28;20028;-78
2022/08/12 09:25:25;;;;;;;0.20;0.20;;;;;;;28.73;43.35;102043.47;5079156;28;20029;-78
2022/08/12 09:27:52;;;;;;;0.10;0.10;;;;;;;28.79;41.22;102040.28;5078497;28;20116;-80
2022/08/12 09:30:20;;;;;;;0.20;0.20;;;;;;;28.97;42.34;102035.19;5081583;28;20024;-79
2022/08/12 09:32:49;;;;;;;0.15;0.15;;;;;;;29.07;41.08;102035.34;5076417;28;20045;-78
2022/08/12 09:35:19;;;;;;;0.00;0.00;;;;;;;29.18;41.13;102029.03;5077350;28;20025;-77
2022/08/12 09:37:46;;;;;;;0.15;0.15;;;;;;;29.30;41.71;102038.97;5061500;28;20111;-77
2022/08/12 09:40:13;;;;;;;0.10;0.10;;;;;;;29.39;40.39;102033.78;5072735;28;20021;-77
2022/08/12 09:45:26;;;;;;;0.20;0.20;;;;;;;29.69;40.59;102027.63;5071486;28;20052;-77
2022/08/12 09:47:53;;;;;;;0.10;0.10;;;;;;;29.80;39.20;102027.59;5076927;28;20027;-77
2022/08/12 09:50:20;;;;;;;0.00;0.00;;;;;;;29.88;39.94;102026.94;5079186;28;20024;-77
2022/08/12 09:52:51;;;;;;;0.20;0.20;;;;;;;29.97;39.96;102020.75;5074023;28;20059;-77
2022/08/12 09:55:18;;;;;;;0.47;0.47;;;;;;;30.06;39.55;102015.50;5070425;28;20046;-77
2022/08/12 09:57:45;;;;;;;0.10;0.10;;;;;;;30.16;40.04;102011.84;5067051;28;20038;-77
2022/08/12 10:00:12;;;;;;;0.10;0.10;;;;;;;30.23;40.32;102012.19;5065126;28;20409;-77
2022/08/12 10:02:57;;;;;;;0.38;0.38;;;;;;;30.32;37.77;102016.88;5063588;28;20028;-77
2022/08/12 10:05:23;;;;;;;0.40;0.30;;;;;;;30.44;38.84;102008.59;5070697;28;20386;-77
2022/08/12 10:07:49;;;;;;;0.10;0.10;;;;;;;30.53;39.78;102007.84;5070420;28;20090;-77
2022/08/12 10:10:15;;;;;;;0.10;0.10;;;;;;;30.54;38.19;102001.34;5073779;28;20040;-77
2022/08/12 10:15:29;;;;;;;0.30;0.30;;;;;;;30.84;37.87;101998.81;5073813;28;20036;-77
2022/08/12 10:17:55;;;;;;;0.10;0.10;;;;;;;30.93;37.13;101996.13;5075143;28;20024;-77
2022/08/12 10:20:21;;;;;;;0.10;0.10;;;;;;;31.02;35.43;101993.53;5075096;28;20027;-77
2022/08/12 10:23:04;;;;;;;0.20;0.20;;;;;;;31.19;36.93;101992.94;5075408;28;20024;-77
2022/08/12 10:31:04;;;;;;;0.20;0.20;;;;;;;31.52;36.85;101977.19;5068189;28;20048;-78
2022/08/12 10:33:32;;;;;;;0.10;0.10;;;;;;;31.50;33.43;101968.22;5078866;28;20032;-78
2022/08/12 10:35:59;;;;;;;1.20;1.20;;;;;;;31.61;34.40;101981.78;5088661;28;20024;-78
2022/08/12 10:38:25;;;;;;;1.15;1.15;;;;;;;31.74;35.22;101976.09;5089448;28;20036;-79
2022/08/12 10:43:41;;;;;;;7.90;1.55;;;;;;;31.92;35.29;101958.94;5086792;28;20033;-78
2022/08/12 10:46:16;;;;;;;0.40;0.40;;;;;;;32.05;35.36;101961.38;5080499;28;20038;-78
2022/08/12 10:48:46;;;;;;;0.35;0.35;;;;;;;32.10;35.11;101954.44;5079624;28;20063;-77
2022/08/12 10:51:13;;;;;;;0.50;0.50;;;;;;;32.15;34.11;101951.28;5078225;28;20035;-78
2022/08/12 10:53:42;;;;;;;0.57;0.57;;;;;;;32.21;32.18;101947.09;5077806;28;20071;-78
2022/08/12 10:56:10;;;;;;;0.30;0.30;;;;;;;32.34;32.28;101955.88;5064515;28;20025;-78
2022/08/12 10:58:37;;;;;;;0.50;0.40;;;;;;;32.46;34.27;101955.72;5075777;28;20417;-78
2022/08/12 11:01:05;;;;;;;0.03;0.03;;;;;;;32.48;32.04;101943.59;5063907;28;20124;-78
2022/08/12 11:03:36;;;;;;;0.10;0.10;;;;;;;32.58;31.69;101941.66;5063423;28;20082;-78
2022/08/12 11:06:03;;;;;;;0.15;0.15;;;;;;;32.67;30.91;101944.53;5072347;28;20737;-78
2022/08/12 11:08:30;;;;;;;0.57;0.43;;;;;;;32.66;31.74;101938.19;5074127;28;20032;-78
2022/08/12 11:10:56;;;;;;;0.35;0.32;;;;;;;32.76;32.81;101938.16;5075480;28;20063;-78
2022/08/12 11:13:23;;;;;;;0.20;0.20;;;;;;;32.79;30.64;101932.41;5067951;28;20320;-78
2022/08/12 11:15:49;;;;;;;0.50;0.50;;;;;;;32.94;30.36;101923.63;5067786;28;20024;-78
2022/08/12 11:18:15;;;;;;;0.10;0.10;;;;;;;33.07;32.17;101926.91;5080258;28;20033;-78
2022/08/12 11:20:42;;;;;;;0.30;0.30;;;;;;;33.09;28.82;101922.13;5080328;28;20036;-78
2022/08/12 11:23:08;;;;;;;0.10;0.10;;;;;;;33.19;28.27;101919.31;5079750;28;20029;-78
2022/08/12 11:25:34;;;;;;;0.25;0.25;;;;;;;33.34;28.15;101919.69;5079529;28;20437;-79
2022/08/12 11:28:00;;;;;;;0.05;0.05;;;;;;;33.35;27.01;101911.28;5080200;28;20036;-78
2022/08/12 11:30:26;;;;;;;0.57;0.57;;;;;;;33.44;25.94;101914.13;5081543;28;20025;-78
2022/08/12 11:32:52;;;;;;;0.10;0.10;;;;;;;33.55;27.03;101906.50;5080357;28;20119;-78
2022/08/12 11:35:19;;;;;;;0.40;0.40;;;;;;;33.67;25.85;101904.41;5081927;28;20702;-78
2022/08/12 11:37:45;;;;;;;0.50;0.50;;;;;;;33.75;26.54;101906.34;5075059;28;20036;-78
2022/08/12 11:40:11;;;;;;;0.50;0.50;;;;;;;33.87;27.53;101904.25;5081032;28;20036;-78
2022/08/12 11:42:38;;;;;;;4.50;0.70;;;;;;;33.86;27.57;101900.63;5080987;28;20041;-78
2022/08/12 11:45:04;;;;;;;1.13;0.52;;;;;;;33.93;26.01;101891.75;5081153;28;20032;-78
2022/08/12 11:47:30;;;;;;;0.65;0.47;;;;;;;34.11;26.32;101895.34;5083206;28;20047;-78
2022/08/12 11:49:56;;;;;;;0.15;0.15;;;;;;;34.23;27.79;101898.66;5082554;28;20029;-78
2022/08/12 11:52:23;;;;;;;0.57;0.57;;;;;;;34.29;25.05;101892.50;5078932;28;20041;-78
2022/08/12 11:54:49;;;;;;;0.10;0.10;;;;;;;34.43;26.26;101884.72;5072142;28;20028;-78
2022/08/12 11:57:15;;;;;;;0.20;0.20;;;;;;;34.54;26.94;101889.09;5083697;28;20102;-78
2022/08/12 11:59:41;;;;;;;0.13;0.13;;;;;;;34.61;25.22;101885.50;5084431;28;20020;-78
2022/08/12 12:02:07;;;;;;;0.10;0.10;;;;;;;34.70;28.89;101875.41;5084513;28;20084;-78
2022/08/12 12:04:33;;;;;;;0.35;0.35;;;;;;;34.79;26.70;101873.53;5085395;28;20062;-78
2022/08/12 12:06:59;;;;;;;0.10;0.10;;;;;;;34.83;26.21;101870.28;5084336;28;20641;-78
2022/08/12 12:09:25;;;;;;;0.20;0.20;;;;;;;34.94;26.75;101868.28;5085392;28;20385;-78
2022/08/12 12:11:51;;;;;;;0.00;0.00;;;;;;;34.91;25.39;101869.50;5085526;28;20036;-78
2022/08/12 12:14:17;;;;;;;0.90;0.57;;;;;;;34.98;24.70;101867.78;5085831;28;20410;-78
2022/08/12 12:16:44;;;;;;;0.13;0.13;;;;;;;35.13;24.73;101872.63;5085322;28;20036;-78
2022/08/12 12:19:10;;;;;;;0.20;0.20;;;;;;;35.15;24.83;101863.19;5085421;28;20025;-78
2022/08/12 12:21:37;;;;;;;0.32;0.32;;;;;;;35.19;24.40;101865.59;5083012;28;20020;-78
2022/08/12 12:24:04;;;;;;;0.10;0.10;;;;;;;35.09;22.54;101861.13;5076815;28;20029;-78
2022/08/12 12:26:30;;;;;;;0.10;0.10;;;;;;;35.12;23.09;101849.75;5081526;28;20047;-78
2022/08/12 12:28:56;;;;;;;0.10;0.10;;;;;;;35.24;23.63;101852.19;5083339;28;20123;-78
2022/08/12 12:31:23;;;;;;;0.00;0.00;;;;;;;35.29;24.25;101839.63;5082914;28;20033;-78
2022/08/12 12:33:49;;;;;;;0.13;0.13;;;;;;;35.42;25.01;101843.81;5084234;28;20024;-78
2022/08/12 12:36:15;;;;;;;0.08;0.08;;;;;;;35.43;24.50;101849.13;5076119;28;20383;-78
2022/08/12 12:38:41;;;;;;;0.00;0.00;;;;;;;35.39;22.17;101838.63;5082116;28;20033;-78
2022/08/12 12:41:07;;;;;;;0.10;0.10;;;;;;;35.46;22.72;101840.50;5078901;28;20110;-77
2022/08/12 12:43:34;;;;;;;0.20;0.20;;;;;;;35.55;23.78;101835.88;5075846;28;20418;-77
2022/08/12 12:46:00;;;;;;;0.10;0.10;;;;;;;35.71;24.20;101839.66;5072532;28;20082;-77
2022/08/12 12:48:26;;;;;;;0.35;0.35;;;;;;;35.81;24.85;101842.25;5075517;28;20115;-77
2022/08/12 12:51:25;;;;;;;0.00;0.00;;;;;;;35.86;24.90;101843.44;5074184;28;20659;-77
2022/08/12 12:53:44;;;;;;;0.20;0.20;;;;;;;35.90;24.21;101831.06;5073760;28;20056;-77
2022/08/12 12:56:15;;;;;;;0.20;0.20;;;;;;;36.00;26.37;101828.09;5076447;28;20158;-77
2022/08/12 12:58:42;;;;;;;0.52;0.52;;;;;;;36.00;24.55;101825.34;5076436;28;20021;-77
2022/08/12 13:01:10;;;;;;;0.10;0.10;;;;;;;36.06;24.11;101821.88;5074796;28;20534;-77
2022/08/12 13:03:36;;;;;;;0.20;0.20;;;;;;;36.15;24.38;101819.09;5075651;28;20559;-77
2022/08/12 13:06:02;;;;;;;0.10;0.10;;;;;;;36.18;24.30;101815.97;5072726;28;20078;-77
2022/08/12 13:08:30;;;;;;;0.10;0.10;;;;;;;36.18;23.85;101810.47;5075634;28;20051;-77
2022/08/12 13:11:00;;;;;;;0.10;0.10;;;;;;;36.22;24.77;101811.84;5075852;28;20036;-77
2022/08/12 13:13:28;;;;;;;0.63;0.45;;;;;;;36.29;24.41;101818.38;5075435;28;20029;-77
2022/08/12 13:15:56;;;;;;;1.08;0.30;;;;;;;36.40;25.61;101809.75;5075970;28;20048;-77
2022/08/12 13:18:24;;;;;;;0.00;0.00;;;;;;;36.51;24.31;101811.22;5076014;28;20028;-77
2022/08/12 13:20:50;;;;;;;0.10;0.10;;;;;;;36.61;24.10;101810.16;5069729;28;20052;-75
2022/08/12 13:23:18;;;;;;;0.57;0.40;;;;;;;36.50;22.30;101808.66;5071923;28;20478;-75
2022/08/12 13:25:45;;;;;;;0.20;0.20;;;;;;;36.65;23.62;101812.41;5070803;28;20031;-75
2022/08/12 13:28:28;;;;;;;0.20;0.20;;;;;;;36.73;22.96;101806.81;5071755;28;20119;-75
2022/08/12 13:30:58;;;;;;;0.10;0.10;;;;;;;36.64;22.46;101805.16;5071860;28;20036;-75
2022/08/12 13:33:25;;;;;;;0.00;0.00;;;;;;;36.63;22.88;101806.19;5071873;28;20056;-75
2022/08/12 13:35:54;;;;;;;0.00;0.00;;;;;;;36.69;21.44;101808.22;5069525;28;20039;-76
2022/08/12 13:38:31;;;;;;;0.13;0.13;;;;;;;36.70;22.01;101803.53;5071612;28;20033;-76
2022/08/12 13:40:57;;;;;;;0.10;0.10;;;;;;;36.69;23.42;101799.94;5071358;28;20032;-76